createdAt,value
2019-04-11T00:01:17.712Z,14.20
2019-04-11T00:03:46.006Z,14.21
2019-04-11T00:06:13.027Z,14.25
2019-04-11T00:08:40.368Z,14.19
2019-04-11T00:11:07.322Z,14.17
2019-04-11T00:13:36.229Z,14.12
2019-04-11T00:16:03.116Z,14.16
2019-04-11T00:18:30.377Z,14.23
2019-04-11T00:20:58.246Z,14.27
2019-04-11T00:23:26.015Z,14.24
2019-04-11T00:25:54.182Z,14.26
2019-04-11T00:28:21.599Z,14.30
2019-04-11T00:30:48.586Z,14.34
2019-04-11T00:33:16.121Z,14.35
2019-04-11T00:35:44.548Z,14.31
2019-04-11T00:38:11.753Z,14.24
2019-04-11T00:40:39.554Z,14.20
2019-04-11T00:43:07.364Z,14.15
2019-04-11T00:45:35.940Z,14.13
2019-04-11T00:48:03.881Z,14.07
2019-04-11T00:50:31.617Z,14.11
2019-04-11T00:52:58.700Z,14.10
2019-04-11T00:55:25.709Z,14.07
2019-04-11T00:57:52.998Z,14.10
2019-04-11T01:00:20.871Z,14.08
2019-04-11T01:02:48.000Z,14.08
2019-04-11T01:05:15.244Z,14.07
2019-04-11T01:07:42.902Z,14.04
2019-04-11T01:10:09.964Z,14.03
2019-04-11T01:12:37.220Z,14.03
2019-04-11T01:15:04.981Z,14.03
2019-04-11T01:17:32.071Z,13.98
2019-04-11T01:19:59.425Z,13.96
2019-04-11T01:22:26.743Z,13.99
2019-04-11T01:24:53.695Z,13.99
2019-04-11T01:27:21.552Z,13.98
2019-04-11T01:29:49.498Z,13.98
2019-04-11T01:32:17.984Z,14.00
2019-04-11T01:34:45.668Z,13.97
2019-04-11T01:37:12.927Z,13.95
2019-04-11T01:39:39.821Z,13.94
2019-04-11T01:42:06.984Z,13.95
2019-04-11T01:44:34.017Z,13.94
2019-04-11T01:47:00.905Z,13.90
2019-04-11T01:49:28.304Z,13.80
2019-04-11T01:51:56.076Z,13.79
2019-04-11T01:54:23.720Z,13.77
2019-04-11T01:56:51.627Z,13.73
2019-04-11T01:59:19.501Z,13.71
2019-04-11T02:01:47.258Z,13.73
2019-04-11T02:04:14.548Z,13.70
2019-04-11T02:06:42.448Z,13.67
2019-04-11T02:09:09.767Z,13.65
2019-04-11T02:11:37.312Z,13.59
2019-04-11T02:14:10.846Z,13.58
2019-04-11T02:16:32.960Z,13.53
2019-04-11T02:18:59.912Z,13.46
2019-04-11T02:21:27.443Z,13.41
2019-04-11T02:23:55.248Z,13.42
2019-04-11T02:26:22.289Z,13.40
2019-04-11T02:28:49.178Z,13.40
2019-04-11T02:31:17.351Z,13.37
2019-04-11T02:33:46.764Z,13.35
2019-04-11T02:36:13.901Z,13.28
2019-04-11T02:38:41.399Z,13.28
2019-04-11T02:41:11.707Z,13.26
2019-04-11T02:43:40.254Z,13.19
2019-04-11T02:46:17.526Z,13.12
2019-04-11T02:48:36.128Z,13.13
2019-04-11T02:51:05.710Z,13.14
2019-04-11T02:53:34.202Z,13.12
2019-04-11T02:56:02.833Z,13.09
2019-04-11T02:58:31.658Z,13.13
2019-04-11T03:01:02.858Z,13.14
2019-04-11T03:03:29.592Z,13.14
2019-04-11T03:05:58.161Z,13.08
2019-04-11T03:08:26.789Z,13.03
2019-04-11T03:10:55.668Z,12.83
2019-04-11T03:13:23.358Z,12.64
2019-04-11T03:16:07.541Z,12.63
2019-04-11T03:18:40.706Z,12.77
2019-04-11T03:20:56.153Z,12.91
2019-04-11T03:23:21.041Z,12.99
2019-04-11T03:25:47.008Z,12.99
2019-04-11T03:28:19.303Z,13.02
2019-04-11T03:31:03.836Z,13.06
2019-04-11T03:38:31.677Z,12.97
2019-04-11T03:40:57.686Z,13.00
2019-04-11T03:43:23.199Z,13.01
2019-04-11T03:45:52.456Z,13.01
2019-04-11T03:48:18.138Z,12.94
2019-04-11T03:50:36.186Z,12.94
2019-04-11T03:53:04.748Z,12.94
2019-04-11T03:55:32.429Z,12.95
2019-04-11T03:58:01.216Z,12.93
2019-04-11T04:00:33.561Z,12.92
2019-04-11T04:02:57.972Z,12.90
2019-04-11T04:05:26.352Z,12.94
2019-04-11T04:07:55.230Z,12.99
2019-04-11T04:10:23.598Z,12.96
2019-04-11T04:12:51.700Z,12.98
2019-04-11T04:15:37.497Z,13.03
2019-04-11T04:17:47.815Z,13.03
2019-04-11T04:20:15.676Z,13.09
2019-04-11T04:22:47.424Z,13.14
2019-04-11T04:25:14.199Z,13.15
2019-04-11T04:27:42.775Z,13.19
2019-04-11T04:30:11.013Z,13.14
2019-04-11T04:32:38.775Z,13.12
2019-04-11T04:35:09.153Z,13.13
2019-04-11T04:37:34.895Z,13.14
2019-04-11T04:40:17.884Z,13.18
2019-04-11T04:42:37.060Z,13.22
2019-04-11T04:45:00.240Z,13.21
2019-04-11T04:47:37.217Z,13.15
2019-04-11T04:49:57.082Z,13.13
2019-04-11T04:52:25.262Z,13.11
2019-04-11T04:54:54.788Z,13.16
2019-04-11T04:57:21.832Z,13.25
2019-04-11T04:59:49.059Z,13.29
2019-04-11T05:02:17.851Z,13.31
2019-04-11T05:04:45.886Z,13.31
2019-04-11T05:07:12.856Z,13.26
2019-04-11T05:09:40.429Z,13.23
2019-04-11T05:12:07.905Z,13.24
2019-04-11T05:14:35.201Z,13.31
2019-04-11T05:17:02.457Z,13.36
2019-04-11T05:19:30.040Z,13.38
2019-04-11T05:21:57.567Z,13.40
2019-04-11T05:24:24.541Z,13.42
2019-04-11T05:26:52.323Z,13.48
2019-04-11T05:29:19.632Z,13.47
2019-04-11T05:31:47.737Z,13.50
2019-04-11T05:34:16.005Z,13.64
2019-04-11T05:36:43.402Z,13.78
2019-04-11T05:39:10.683Z,13.84
2019-04-11T05:41:37.746Z,13.88
2019-04-11T05:44:08.880Z,13.88
2019-04-11T05:46:45.705Z,13.90
2019-04-11T05:49:02.673Z,13.92
2019-04-11T05:51:36.937Z,13.97
2019-04-11T05:54:01.953Z,13.95
2019-04-11T05:56:27.977Z,13.86
2019-04-11T05:58:55.617Z,13.80
2019-04-11T06:01:22.879Z,13.84
2019-04-11T06:03:50.848Z,13.93
2019-04-11T06:06:18.628Z,14.07
2019-04-11T06:08:46.115Z,14.19
2019-04-11T06:11:16.389Z,14.27
2019-04-11T06:13:42.794Z,14.37
2019-04-11T06:16:10.866Z,14.45
2019-04-11T06:18:41.902Z,14.52
2019-04-11T06:21:07.420Z,14.66
2019-04-11T06:23:35.085Z,14.70
2019-04-11T06:26:02.287Z,12.69
2019-04-11T06:28:30.613Z,14.71
2019-04-11T06:30:58.974Z,14.67
2019-04-11T06:33:26.767Z,14.68
2019-04-11T06:35:54.571Z,14.78
2019-04-11T06:38:22.657Z,14.88
2019-04-11T06:40:50.997Z,15.04
2019-04-11T06:43:18.338Z,15.19
2019-04-11T06:45:46.090Z,15.27
2019-04-11T06:48:13.575Z,15.32
2019-04-11T06:50:41.454Z,15.51
2019-04-11T06:53:08.982Z,15.72
2019-04-11T06:55:36.976Z,15.86
2019-04-11T06:58:04.761Z,15.88
2019-04-11T07:00:31.784Z,15.91
2019-04-11T07:02:59.267Z,15.93
2019-04-11T07:05:26.778Z,15.94
2019-04-11T07:07:53.812Z,15.82
2019-04-11T07:10:20.710Z,15.87
2019-04-11T07:12:47.602Z,16.10
2019-04-11T07:15:14.568Z,16.19
2019-04-11T07:17:41.861Z,16.37
2019-04-11T07:20:09.109Z,16.51
2019-04-11T07:22:36.852Z,16.51
2019-04-11T07:25:05.990Z,16.56
2019-04-11T07:27:33.122Z,16.59
2019-04-11T07:30:00.072Z,16.39
2019-04-11T07:32:27.830Z,16.31
2019-04-11T07:34:56.445Z,16.05
2019-04-11T07:37:23.655Z,16.01
2019-04-11T07:39:51.619Z,16.04
2019-04-11T07:42:18.652Z,16.07
2019-04-11T07:44:45.601Z,16.25
2019-04-11T07:47:18.674Z,16.27
2019-04-11T07:49:41.061Z,16.24
2019-04-11T07:52:08.954Z,16.24
2019-04-11T07:54:36.969Z,16.08
2019-04-11T07:57:04.285Z,16.05
2019-04-11T07:59:31.566Z,15.93
2019-04-11T08:01:59.306Z,16.03
2019-04-11T08:04:27.672Z,16.38
2019-04-11T08:06:56.301Z,16.53
2019-04-11T08:09:24.407Z,16.56
2019-04-11T08:11:51.903Z,16.82
2019-04-11T08:14:20.142Z,17.23
2019-04-11T08:16:47.222Z,17.57
2019-04-11T08:19:15.311Z,17.87
2019-04-11T08:21:42.391Z,18.14
2019-04-11T08:24:09.997Z,18.35
2019-04-11T08:26:38.101Z,18.45
2019-04-11T08:29:10.592Z,18.52
2019-04-11T08:31:33.632Z,18.43
2019-04-11T08:34:02.800Z,18.17
2019-04-11T08:36:29.835Z,18.06
2019-04-11T08:38:57.062Z,17.90
2019-04-11T08:41:23.933Z,17.93
2019-04-11T08:43:51.191Z,17.81
2019-04-11T08:46:18.518Z,17.56
2019-04-11T08:48:45.737Z,17.64
2019-04-11T08:51:12.720Z,17.42
2019-04-11T08:53:40.657Z,17.22
2019-04-11T08:56:07.746Z,17.00
2019-04-11T08:58:35.012Z,16.91
2019-04-11T09:01:03.298Z,16.65
2019-04-11T09:03:33.569Z,16.30
2019-04-11T09:06:02.694Z,16.19
2019-04-11T09:08:30.093Z,16.08
2019-04-11T09:10:58.142Z,16.13
2019-04-11T09:13:25.167Z,16.12
2019-04-11T09:15:52.928Z,15.85
2019-04-11T09:18:19.962Z,15.81
2019-04-11T09:20:47.756Z,15.92
2019-04-11T09:23:16.124Z,15.91
2019-04-11T09:25:43.455Z,15.78
2019-04-11T09:28:11.624Z,15.90
2019-04-11T09:30:38.938Z,15.99
2019-04-11T09:33:06.795Z,15.96
2019-04-11T09:35:33.788Z,15.92
2019-04-11T09:38:02.303Z,15.76
2019-04-11T09:40:29.904Z,15.67
2019-04-11T09:42:57.602Z,15.69
2019-04-11T09:45:25.726Z,15.56
2019-04-11T09:47:57.698Z,15.56
2019-04-11T09:50:22.410Z,15.68
2019-04-11T09:52:49.713Z,15.78
2019-04-11T09:55:17.157Z,15.63
2019-04-11T09:57:44.222Z,15.48
2019-04-11T10:00:12.374Z,15.18
2019-04-11T10:02:40.451Z,14.99
2019-04-11T10:05:07.555Z,15.08
2019-04-11T10:07:35.553Z,15.10
2019-04-11T10:10:02.699Z,15.10
2019-04-11T10:12:31.859Z,15.06
2019-04-11T10:14:59.996Z,15.00
2019-04-11T10:17:27.022Z,15.07
2019-04-11T10:19:54.223Z,15.32
2019-04-11T10:22:21.247Z,15.45
2019-04-11T10:24:48.448Z,15.56
2019-04-11T10:27:16.350Z,15.50
2019-04-11T10:29:44.059Z,15.59
2019-04-11T10:32:11.398Z,15.50
2019-04-11T10:34:38.630Z,15.42
2019-04-11T10:37:05.537Z,15.40
2019-04-11T10:39:33.329Z,15.21
2019-04-11T10:42:00.705Z,15.16
2019-04-11T10:44:27.954Z,15.09
2019-04-11T10:46:55.744Z,15.23
2019-04-11T10:49:22.963Z,15.28
2019-04-11T10:51:49.968Z,15.30
2019-04-11T10:54:16.968Z,15.42
2019-04-11T10:56:43.907Z,15.41
2019-04-11T10:59:10.777Z,15.27
2019-04-11T11:01:38.012Z,15.34
2019-04-11T11:04:04.910Z,15.55
2019-04-11T11:06:31.874Z,15.70
2019-04-11T11:08:58.828Z,15.72
2019-04-11T11:11:26.166Z,15.57
2019-04-11T11:13:54.278Z,15.52
2019-04-11T11:16:22.300Z,15.60
2019-04-11T11:19:22.259Z,15.68
2019-04-11T11:21:17.857Z,15.75
2019-04-11T11:23:45.069Z,15.80
2019-04-11T11:26:12.594Z,15.77
2019-04-11T11:28:41.044Z,15.63
2019-04-11T11:31:08.296Z,15.46
2019-04-11T11:33:35.289Z,15.49
2019-04-11T11:36:04.582Z,15.49
2019-04-11T11:38:30.725Z,15.49
2019-04-11T11:40:58.450Z,15.57
2019-04-11T11:43:25.835Z,15.60
2019-04-11T11:45:55.513Z,15.71
2019-04-11T11:48:23.124Z,15.69
2019-04-11T11:50:51.444Z,15.68
2019-04-11T11:53:18.554Z,15.76
2019-04-11T11:55:45.512Z,15.83
2019-04-11T11:58:16.680Z,15.80
2019-04-11T12:00:41.407Z,15.69
2019-04-11T12:03:08.689Z,15.54
2019-04-11T12:05:36.760Z,15.43
2019-04-11T12:08:04.297Z,15.20
2019-04-11T12:10:33.634Z,15.07
2019-04-11T12:13:06.673Z,15.04
2019-04-11T12:15:30.315Z,15.15
2019-04-11T12:17:57.695Z,14.92
2019-04-11T12:20:24.891Z,14.86
2019-04-11T12:22:52.630Z,14.97
2019-04-11T12:25:20.844Z,15.07
2019-04-11T12:27:47.902Z,14.99
2019-04-11T12:30:15.671Z,15.14
2019-04-11T12:32:42.763Z,15.21
2019-04-11T12:35:09.696Z,15.12
2019-04-11T12:37:37.740Z,15.07
2019-04-11T12:40:05.117Z,15.12
2019-04-11T12:42:32.001Z,15.13
2019-04-11T12:44:59.720Z,15.25
2019-04-11T12:47:27.201Z,15.40
2019-04-11T12:49:54.097Z,15.54
2019-04-11T12:52:21.040Z,15.66
2019-04-11T12:54:48.320Z,15.64
2019-04-11T12:57:15.264Z,15.42
2019-04-11T12:59:42.314Z,15.13
2019-04-11T13:02:09.231Z,14.96
2019-04-11T13:04:36.424Z,14.97
2019-04-11T13:07:03.380Z,15.01
2019-04-11T13:09:30.606Z,14.87
2019-04-11T13:11:57.474Z,14.95
2019-04-11T13:14:24.352Z,14.99
2019-04-11T13:16:51.245Z,15.10
2019-04-11T13:19:18.186Z,15.05
2019-04-11T13:21:45.055Z,15.05
2019-04-11T13:24:11.925Z,14.99
2019-04-11T13:26:39.124Z,14.99
2019-04-11T13:29:06.007Z,14.99
2019-04-11T13:31:32.901Z,14.95
2019-04-11T13:34:00.211Z,14.90
2019-04-11T13:36:28.210Z,14.91
2019-04-11T13:38:55.115Z,14.98
2019-04-11T13:41:22.072Z,15.10
2019-04-11T13:43:49.073Z,15.26
2019-04-11T13:46:16.361Z,15.27
2019-04-11T13:48:44.305Z,15.06
2019-04-11T13:51:11.878Z,14.93
2019-04-11T13:53:39.140Z,15.00
2019-04-11T13:56:06.040Z,15.13
2019-04-11T13:58:32.993Z,15.20
2019-04-11T14:00:59.859Z,15.27
2019-04-11T14:03:26.739Z,15.26
2019-04-11T14:05:53.695Z,15.33
2019-04-11T14:08:20.557Z,15.44
2019-04-11T14:10:47.736Z,15.53
2019-04-11T14:13:14.609Z,15.59
2019-04-11T14:15:41.582Z,15.62
2019-04-11T14:18:11.386Z,15.70
2019-04-11T14:20:37.424Z,15.69
2019-04-11T14:23:04.531Z,15.58
2019-04-11T14:25:31.497Z,15.57
2019-04-11T14:27:58.804Z,15.46
2019-04-11T14:30:26.265Z,15.36
2019-04-11T14:32:53.958Z,15.33
2019-04-11T14:35:21.805Z,15.48
2019-04-11T14:37:48.693Z,15.45
2019-04-11T14:40:15.894Z,15.39
2019-04-11T14:42:45.961Z,15.42
2019-04-11T14:45:14.168Z,15.43
2019-04-11T14:47:41.114Z,15.21
2019-04-11T14:50:08.754Z,15.03
2019-04-11T14:52:37.057Z,15.12
2019-04-11T14:55:03.950Z,15.20
2019-04-11T14:57:32.072Z,15.25
2019-04-11T14:59:59.017Z,15.31
2019-04-11T15:02:25.993Z,15.33
2019-04-11T15:04:52.983Z,15.29
2019-04-11T15:07:19.967Z,15.36
2019-04-11T15:09:47.297Z,15.32
2019-04-11T15:12:17.574Z,15.28
2019-04-11T15:14:43.281Z,15.19
2019-04-11T15:17:10.171Z,15.23
2019-04-11T15:19:37.483Z,15.26
2019-04-11T15:22:06.274Z,15.26
2019-04-11T15:24:37.486Z,15.23
2019-04-11T15:27:02.106Z,15.06
2019-04-11T15:29:30.016Z,15.09
2019-04-11T15:31:59.703Z,15.09
2019-04-11T15:34:25.912Z,15.16
2019-04-11T15:36:53.146Z,15.03
2019-04-11T15:39:20.058Z,15.03
2019-04-11T15:41:47.009Z,15.10
2019-04-11T15:44:14.574Z,15.22
2019-04-11T15:46:43.208Z,15.21
2019-04-11T15:49:20.040Z,15.18
2019-04-11T15:51:50.100Z,15.13
2019-04-11T15:54:17.336Z,15.08
2019-04-11T15:56:44.603Z,15.14
2019-04-11T15:59:13.121Z,15.25
2019-04-11T16:01:40.610Z,15.25
2019-04-11T16:04:07.803Z,15.13
2019-04-11T16:06:38.822Z,15.15
2019-04-11T16:09:04.596Z,15.03
2019-04-11T16:11:31.610Z,14.89
2019-04-11T16:13:58.865Z,15.03
2019-04-11T16:16:26.104Z,15.09
2019-04-11T16:18:53.368Z,15.18
2019-04-11T16:21:23.949Z,15.11
2019-04-11T16:23:49.990Z,15.06
2019-04-11T16:26:17.856Z,15.07
2019-04-11T16:28:45.131Z,15.09
2019-04-11T16:31:12.325Z,14.92
2019-04-11T16:33:39.254Z,14.78
2019-04-11T16:36:06.484Z,14.75
2019-04-11T16:38:33.388Z,14.74
2019-04-11T16:41:00.673Z,14.77
2019-04-11T16:43:27.933Z,14.79
2019-04-11T16:45:55.370Z,14.73
2019-04-11T16:48:25.670Z,14.57
2019-04-11T16:50:52.441Z,14.58
2019-04-11T16:53:19.370Z,14.59
2019-04-11T16:55:46.345Z,14.73
2019-04-11T16:58:16.983Z,14.86
2019-04-11T17:00:41.968Z,14.69
2019-04-11T17:03:08.906Z,14.56
2019-04-11T17:05:35.783Z,14.53
2019-04-11T17:08:02.760Z,14.47
2019-04-11T17:10:29.661Z,14.39
2019-04-11T17:12:56.715Z,14.47
2019-04-11T17:15:23.686Z,14.48
2019-04-11T17:17:50.585Z,14.46
2019-04-11T17:20:17.881Z,14.53
2019-04-11T17:22:48.404Z,14.48
2019-04-11T17:25:13.804Z,14.55
2019-04-11T17:27:40.798Z,14.56
2019-04-11T17:30:07.817Z,14.59
2019-04-11T17:32:34.793Z,14.63
2019-04-11T17:35:02.477Z,14.58
2019-04-11T17:37:32.924Z,14.51
2019-04-11T17:40:00.092Z,14.43
2019-04-11T17:42:27.343Z,14.34
2019-04-11T17:44:54.360Z,14.20
2019-04-11T17:47:21.756Z,14.15
2019-04-11T17:49:50.350Z,14.16
2019-04-11T17:52:17.433Z,14.25
2019-04-11T17:54:44.462Z,14.22
2019-04-11T17:57:11.362Z,14.17
2019-04-11T17:59:38.712Z,14.09
2019-04-11T18:02:10.143Z,14.06
2019-04-11T18:04:35.446Z,14.04
2019-04-11T18:07:04.065Z,14.09
2019-04-11T18:09:31.433Z,14.21
2019-04-11T18:11:58.968Z,14.29
2019-04-11T18:14:30.945Z,14.31
2019-04-11T18:16:55.930Z,14.34
2019-04-11T18:19:24.271Z,14.31
2019-04-11T18:21:51.276Z,14.26
2019-04-11T18:24:19.969Z,14.23
2019-04-11T18:26:51.763Z,14.17
2019-04-11T18:29:16.704Z,14.22
2019-04-11T18:31:43.997Z,14.30
2019-04-11T18:34:12.037Z,14.36
2019-04-11T18:36:39.107Z,14.44
2019-04-11T18:39:06.081Z,14.44
2019-04-11T18:41:33.600Z,14.31
2019-04-11T18:44:00.563Z,14.25
2019-04-11T18:46:28.031Z,14.25
2019-04-11T18:48:54.993Z,14.22
2019-04-11T18:51:23.189Z,14.16
2019-04-11T18:53:51.084Z,14.12
2019-04-11T18:56:18.076Z,14.20
2019-04-11T18:58:45.064Z,14.24
2019-04-11T19:01:12.060Z,14.39
2019-04-11T19:03:41.348Z,14.55
2019-04-11T19:06:08.364Z,14.79
2019-04-11T19:08:35.779Z,14.96
2019-04-11T19:11:03.059Z,15.04
2019-04-11T19:13:30.038Z,15.06
2019-04-11T19:15:56.993Z,15.06
2019-04-11T19:18:24.350Z,15.01
2019-04-11T19:20:51.251Z,14.95
2019-04-11T19:23:18.720Z,14.95
2019-04-11T19:25:45.637Z,14.93
2019-04-11T19:28:12.847Z,14.96
2019-04-11T19:30:42.340Z,14.90
2019-04-11T19:33:08.762Z,14.89
2019-04-11T19:35:35.732Z,14.82
2019-04-11T19:38:02.983Z,14.82
2019-04-11T19:40:30.585Z,14.80
2019-04-11T19:42:58.078Z,14.85
2019-04-11T19:45:25.092Z,14.84
2019-04-11T19:47:52.831Z,14.84
2019-04-11T19:50:20.308Z,14.84
2019-04-11T19:52:47.329Z,14.88
2019-04-11T19:55:14.272Z,14.84
2019-04-11T19:57:41.299Z,14.75
2019-04-11T20:00:08.748Z,14.64
2019-04-11T20:02:35.688Z,14.60
2019-04-11T20:05:02.669Z,14.62
2019-04-11T20:07:30.097Z,14.63
2019-04-11T20:09:58.497Z,14.53
2019-04-11T20:12:27.774Z,14.24
2019-04-11T20:14:54.849Z,14.10
2019-04-11T20:17:22.081Z,14.12
2019-04-11T20:20:00.683Z,14.15
2019-04-11T20:22:18.055Z,14.10
2019-04-11T20:24:46.937Z,14.06
2019-04-11T20:27:13.653Z,13.97
2019-04-11T20:29:40.925Z,14.02
2019-04-11T20:32:08.151Z,13.98
2019-04-11T20:34:38.025Z,13.89
2019-04-11T20:37:03.705Z,13.85
2019-04-11T20:39:30.585Z,13.88
2019-04-11T20:41:57.525Z,13.93
2019-04-11T20:44:27.243Z,13.96
2019-04-11T20:46:53.070Z,13.94
2019-04-11T20:49:20.117Z,13.95
2019-04-11T20:51:47.414Z,13.93
2019-04-11T20:54:14.319Z,13.93
2019-04-11T20:56:41.271Z,13.87
2019-04-11T20:59:10.371Z,13.94
2019-04-11T21:01:37.135Z,14.02
2019-04-11T21:04:04.817Z,13.97
2019-04-11T21:06:32.598Z,14.01
2019-04-11T21:09:02.863Z,14.00
2019-04-11T21:11:30.159Z,14.03
2019-04-11T21:13:57.385Z,14.02
2019-04-11T21:16:24.640Z,14.00
2019-04-11T21:18:54.491Z,13.98
2019-04-11T21:21:20.489Z,13.92
2019-04-11T21:23:47.420Z,13.94
2019-04-11T21:26:14.573Z,14.03
2019-04-11T21:28:42.084Z,14.08
2019-04-11T21:31:09.112Z,14.13
2019-04-11T21:33:36.337Z,14.16
2019-04-11T21:36:03.953Z,14.18
2019-04-11T21:38:31.510Z,14.18
2019-04-11T21:40:58.908Z,14.19
2019-04-11T21:43:26.472Z,14.17
2019-04-11T21:45:53.794Z,14.17
2019-04-11T21:48:20.976Z,14.10
2019-04-11T21:50:47.861Z,14.01
2019-04-11T21:53:15.042Z,13.97
2019-04-11T21:55:42.480Z,14.00
2019-04-11T21:58:12.750Z,13.98
2019-04-11T22:00:39.741Z,13.96
2019-04-11T22:03:08.304Z,13.99
2019-04-11T22:05:35.281Z,13.95
2019-04-11T22:08:03.986Z,13.92
2019-04-11T22:10:31.012Z,13.82
2019-04-11T22:12:57.990Z,13.83
2019-04-11T22:15:24.916Z,13.80
2019-04-11T22:17:51.930Z,13.88
2019-04-11T22:20:18.806Z,13.92
2019-04-11T22:22:46.063Z,13.97
2019-04-11T22:25:13.362Z,14.01
2019-04-11T22:27:40.602Z,13.96
2019-04-11T22:30:07.483Z,13.93
2019-04-11T22:32:34.429Z,13.98
2019-04-11T22:35:01.325Z,13.96
2019-04-11T22:37:30.087Z,14.01
2019-04-11T22:39:56.964Z,14.02
2019-04-11T22:42:23.846Z,13.98
2019-04-11T22:44:50.709Z,13.92
2019-04-11T22:47:17.620Z,13.80
2019-04-11T22:49:45.004Z,13.78
2019-04-11T22:52:12.213Z,13.84
2019-04-11T22:54:41.227Z,13.86
2019-04-11T22:57:11.676Z,13.91
2019-04-11T22:59:36.727Z,13.89
2019-04-11T23:02:03.992Z,13.84
2019-04-11T23:04:30.887Z,13.82
2019-04-11T23:06:57.753Z,13.89
2019-04-11T23:09:24.912Z,13.92
2019-04-11T23:11:52.065Z,13.89
2019-04-11T23:14:19.222Z,13.92
2019-04-11T23:16:46.443Z,13.94
2019-04-11T23:19:14.296Z,13.89
2019-04-11T23:21:42.133Z,13.77
2019-04-11T23:24:12.122Z,13.73
2019-04-11T23:26:38.167Z,13.68
2019-04-11T23:29:05.160Z,13.74
2019-04-11T23:31:32.036Z,13.77
2019-04-11T23:33:59.207Z,13.80
2019-04-11T23:36:26.148Z,13.79
2019-04-11T23:38:53.793Z,13.75
2019-04-11T23:41:20.840Z,13.75
2019-04-11T23:43:49.980Z,13.79
2019-04-11T23:46:18.952Z,13.74
2019-04-11T23:48:45.254Z,13.68
2019-04-11T23:51:12.118Z,13.63
2019-04-11T23:53:39.016Z,13.52
2019-04-11T23:56:05.909Z,13.52
2019-04-11T23:58:32.821Z,13.61
